createdAt,value
2019-03-23T00:02:25.182Z,6.77
2019-03-23T00:04:53.366Z,6.97
2019-03-23T00:07:21.460Z,7.80
2019-03-23T00:09:49.747Z,8.07
2019-03-23T00:12:17.902Z,8.63
2019-03-23T00:14:46.025Z,9.43
2019-03-23T00:17:14.232Z,10.03
2019-03-23T00:19:42.388Z,9.73
2019-03-23T00:22:10.599Z,9.23
2019-03-23T00:24:38.758Z,9.83
2019-03-23T00:27:06.942Z,9.37
2019-03-23T00:29:35.071Z,9.33
2019-03-23T00:32:03.253Z,9.10
2019-03-23T00:34:31.389Z,8.00
2019-03-23T00:36:59.555Z,7.53
2019-03-23T00:39:27.709Z,7.60
2019-03-23T00:41:55.836Z,6.67
2019-03-23T00:44:23.991Z,7.40
2019-03-23T00:46:52.153Z,6.67
2019-03-23T00:49:20.347Z,8.00
2019-03-23T00:51:48.521Z,6.60
2019-03-23T00:54:17.055Z,5.80
2019-03-23T00:56:45.149Z,5.73
2019-03-23T00:59:13.347Z,6.50
2019-03-23T01:01:41.545Z,6.50
2019-03-23T01:04:09.820Z,6.07
2019-03-23T01:06:38.085Z,6.43
2019-03-23T01:09:07.506Z,6.00
2019-03-23T01:11:35.606Z,5.93
2019-03-23T01:14:03.888Z,6.20
2019-03-23T01:16:32.005Z,6.40
2019-03-23T01:19:00.181Z,6.50
2019-03-23T01:21:28.336Z,5.80
2019-03-23T01:23:56.544Z,6.40
2019-03-23T01:26:24.717Z,5.80
2019-03-23T01:28:52.922Z,6.03
2019-03-23T01:31:21.108Z,6.13
2019-03-23T01:33:49.246Z,5.33
2019-03-23T01:36:17.386Z,5.83
2019-03-23T01:38:45.494Z,5.40
2019-03-23T01:41:13.611Z,5.40
2019-03-23T01:43:41.726Z,5.50
2019-03-23T01:46:09.851Z,5.60
2019-03-23T01:48:38.037Z,6.27
2019-03-23T01:51:06.429Z,5.70
2019-03-23T01:53:34.577Z,5.30
2019-03-23T01:56:02.756Z,5.50
2019-03-23T01:58:30.880Z,5.00
2019-03-23T02:00:59.482Z,5.57
2019-03-23T02:03:27.595Z,5.60
2019-03-23T02:05:55.785Z,5.70
2019-03-23T02:08:23.926Z,5.57
2019-03-23T02:10:52.078Z,6.17
2019-03-23T02:13:20.239Z,6.03
2019-03-23T02:15:48.658Z,4.93
2019-03-23T02:18:16.753Z,5.63
2019-03-23T02:20:44.935Z,6.07
2019-03-23T02:23:13.117Z,5.63
2019-03-23T02:25:41.274Z,5.87
2019-03-23T02:28:09.427Z,5.70
2019-03-23T02:30:37.567Z,5.83
2019-03-23T02:33:05.772Z,6.03
2019-03-23T02:35:33.930Z,6.60
2019-03-23T02:38:02.056Z,6.13
2019-03-23T02:40:30.235Z,5.27
2019-03-23T02:42:58.416Z,5.70
2019-03-23T02:45:26.545Z,5.40
2019-03-23T02:47:54.707Z,5.63
2019-03-23T02:50:22.861Z,6.10
2019-03-23T02:52:50.991Z,6.03
2019-03-23T02:55:19.133Z,5.77
2019-03-23T02:57:47.325Z,6.00
2019-03-23T03:00:15.675Z,6.17
2019-03-23T03:02:43.868Z,5.87
2019-03-23T03:05:12.114Z,5.97
2019-03-23T03:07:42.305Z,6.13
2019-03-23T03:10:11.164Z,5.80
2019-03-23T03:12:39.276Z,6.17
2019-03-23T03:15:07.651Z,5.43
2019-03-23T03:17:35.822Z,5.50
2019-03-23T03:20:04.985Z,5.97
2019-03-23T03:22:33.107Z,5.77
2019-03-23T03:25:01.207Z,5.87
2019-03-23T03:27:29.341Z,5.50
2019-03-23T03:29:57.468Z,5.23
2019-03-23T03:32:25.595Z,5.77
2019-03-23T03:34:53.718Z,6.10
2019-03-23T03:37:21.841Z,5.77
2019-03-23T03:39:49.968Z,6.20
2019-03-23T03:42:18.179Z,6.20
2019-03-23T03:44:46.294Z,6.90
2019-03-23T03:47:14.402Z,6.53
2019-03-23T03:49:42.608Z,6.23
2019-03-23T03:52:10.694Z,7.20
2019-03-23T03:54:38.859Z,7.33
2019-03-23T03:57:06.985Z,7.10
2019-03-23T03:59:35.203Z,6.87
2019-03-23T04:02:03.378Z,7.53
2019-03-23T04:04:31.555Z,7.70
2019-03-23T04:06:59.648Z,7.83
2019-03-23T04:09:27.755Z,7.07
2019-03-23T04:11:55.853Z,7.00
2019-03-23T04:14:23.966Z,6.73
2019-03-23T04:16:52.090Z,7.63
2019-03-23T04:19:20.155Z,6.47
2019-03-23T04:21:48.262Z,6.10
2019-03-23T04:24:16.382Z,6.53
2019-03-23T04:26:44.507Z,6.73
2019-03-23T04:29:12.629Z,6.87
2019-03-23T04:31:40.727Z,7.07
2019-03-23T04:34:08.855Z,6.47
2019-03-23T04:36:36.958Z,7.00
2019-03-23T04:39:06.207Z,6.13
2019-03-23T04:41:34.298Z,6.53
2019-03-23T04:44:02.442Z,6.27
2019-03-23T04:46:30.580Z,6.23
2019-03-23T04:48:58.689Z,5.90
2019-03-23T04:51:26.811Z,6.73
2019-03-23T04:53:54.920Z,5.70
2019-03-23T04:56:23.093Z,6.67
2019-03-23T04:58:51.260Z,6.27
2019-03-23T05:01:19.353Z,6.07
2019-03-23T05:03:47.504Z,6.57
2019-03-23T05:06:15.615Z,6.93
2019-03-23T05:08:43.711Z,6.53
2019-03-23T05:11:11.821Z,6.27
2019-03-23T05:13:39.926Z,6.17
2019-03-23T05:16:08.025Z,6.60
2019-03-23T05:18:36.137Z,6.70
2019-03-23T05:21:04.253Z,6.33
2019-03-23T05:23:32.501Z,6.50
2019-03-23T05:26:00.661Z,6.67
2019-03-23T05:28:28.800Z,6.43
2019-03-23T05:30:56.901Z,6.30
2019-03-23T05:33:25.054Z,6.13
2019-03-23T05:35:53.242Z,6.30
2019-03-23T05:38:21.429Z,6.23
2019-03-23T05:40:49.580Z,6.60
2019-03-23T05:43:17.733Z,6.43
2019-03-23T05:45:45.865Z,6.80
2019-03-23T05:48:14.266Z,6.70
2019-03-23T05:50:42.372Z,6.43
2019-03-23T05:53:10.452Z,7.00
2019-03-23T05:55:38.607Z,5.93
2019-03-23T05:58:06.794Z,6.60
2019-03-23T06:00:34.931Z,6.70
2019-03-23T06:03:03.131Z,6.17
2019-03-23T06:05:31.273Z,6.63
2019-03-23T06:07:59.433Z,5.97
2019-03-23T06:10:27.577Z,7.03
2019-03-23T06:12:55.762Z,6.43
2019-03-23T06:15:23.886Z,6.63
2019-03-23T06:17:52.096Z,6.23
2019-03-23T06:20:20.249Z,6.33
2019-03-23T06:22:48.383Z,6.30
2019-03-23T06:25:16.535Z,7.00
2019-03-23T06:27:44.689Z,6.40
2019-03-23T06:30:12.790Z,6.30
2019-03-23T06:32:40.921Z,5.93
2019-03-23T07:29:09.339Z,5.73
2019-03-23T07:31:37.421Z,6.27
2019-03-23T07:34:06.271Z,6.13
2019-03-23T07:36:34.481Z,6.50
2019-03-23T07:39:03.279Z,6.73
2019-03-23T07:41:31.514Z,7.03
2019-03-23T07:43:59.781Z,6.23
2019-03-23T07:46:27.934Z,7.27
2019-03-23T07:48:56.071Z,7.23
2019-03-23T07:51:24.336Z,7.27
2019-03-23T07:53:52.489Z,7.00
2019-03-23T07:56:20.644Z,7.27
2019-03-23T07:58:48.757Z,7.10
2019-03-23T08:01:16.992Z,7.03
2019-03-23T08:03:45.165Z,7.50
2019-03-23T08:06:13.316Z,6.77
2019-03-23T08:08:41.410Z,7.17
2019-03-23T08:11:09.531Z,7.17
2019-03-23T08:13:37.734Z,7.67
2019-03-23T08:16:05.920Z,7.30
2019-03-23T08:18:34.038Z,7.17
2019-03-23T08:21:02.180Z,7.13
2019-03-23T08:23:30.365Z,7.63
2019-03-23T08:25:58.536Z,7.67
2019-03-23T08:28:26.682Z,7.47
2019-03-23T08:30:54.801Z,7.40
2019-03-23T08:33:22.914Z,7.73
2019-03-23T08:35:51.189Z,8.63
2019-03-23T08:38:19.387Z,8.60
2019-03-23T08:40:47.548Z,8.97
2019-03-23T08:43:15.645Z,9.37
2019-03-23T08:45:43.924Z,8.57
2019-03-23T08:48:12.060Z,9.53
2019-03-23T08:50:40.257Z,10.13
2019-03-23T08:53:08.401Z,13.33
2019-03-23T08:55:36.586Z,10.87
2019-03-23T08:58:05.122Z,9.43
2019-03-23T09:00:33.240Z,10.00
2019-03-23T09:03:03.617Z,9.50
2019-03-23T09:05:31.468Z,10.07
2019-03-23T09:07:59.612Z,9.83
2019-03-23T09:10:27.777Z,9.37
2019-03-23T09:12:56.291Z,10.13
2019-03-23T09:15:24.566Z,8.93
2019-03-23T09:17:52.678Z,9.20
2019-03-23T09:20:20.828Z,10.20
2019-03-23T09:22:49.025Z,10.37
2019-03-23T09:25:17.233Z,9.60
2019-03-23T09:27:45.347Z,10.03
2019-03-23T09:30:14.553Z,10.20
2019-03-23T09:32:42.763Z,10.17
2019-03-23T09:35:10.943Z,10.07
2019-03-23T09:37:39.175Z,11.10
2019-03-23T09:40:11.120Z,11.13
2019-03-23T09:42:38.560Z,9.97
2019-03-23T09:45:07.371Z,11.10
2019-03-23T09:47:35.563Z,9.83
2019-03-23T09:50:04.391Z,10.57
2019-03-23T09:52:32.520Z,10.17
2019-03-23T09:55:00.685Z,10.27
2019-03-23T09:57:28.877Z,10.40
2019-03-23T09:59:57.084Z,10.63
2019-03-23T10:02:25.160Z,9.57
2019-03-23T10:04:53.251Z,8.80
2019-03-23T10:07:21.381Z,9.30
2019-03-23T10:09:49.490Z,7.07
2019-03-23T10:12:17.686Z,9.17
2019-03-23T10:14:45.909Z,9.67
2019-03-23T10:17:14.033Z,10.07
2019-03-23T10:19:42.271Z,8.70
2019-03-23T10:22:10.389Z,10.27
2019-03-23T10:24:38.514Z,9.30
2019-03-23T10:27:06.620Z,10.33
2019-03-23T10:29:34.945Z,9.93
2019-03-23T10:32:05.452Z,10.07
2019-03-23T10:34:37.462Z,9.70
2019-03-23T10:37:06.374Z,9.40
2019-03-23T10:39:34.981Z,9.63
2019-03-23T10:42:03.115Z,9.23
2019-03-23T10:44:31.270Z,10.33
2019-03-23T10:46:59.391Z,9.27
2019-03-23T10:49:27.513Z,11.07
2019-03-23T10:51:55.680Z,9.70
2019-03-23T10:54:23.844Z,10.23
2019-03-23T10:56:52.001Z,9.67
2019-03-23T10:59:20.177Z,8.97
2019-03-23T11:01:48.501Z,9.43
2019-03-23T11:04:17.204Z,9.00
2019-03-23T11:06:45.643Z,9.73
2019-03-23T11:09:14.158Z,10.47
2019-03-23T11:11:45.886Z,9.73
2019-03-23T11:14:14.248Z,8.97
2019-03-23T11:16:42.349Z,9.17
2019-03-23T11:19:29.627Z,9.10
2019-03-23T11:21:57.745Z,8.90
2019-03-23T11:24:25.938Z,8.53
2019-03-23T11:26:54.104Z,8.10
2019-03-23T11:29:22.181Z,8.43
2019-03-23T11:31:50.375Z,8.60
2019-03-23T11:34:18.539Z,9.47
2019-03-23T11:36:46.816Z,9.10
2019-03-23T11:39:14.903Z,9.17
2019-03-23T11:41:43.070Z,8.67
2019-03-23T11:44:11.246Z,8.50
2019-03-23T11:46:39.441Z,8.87
2019-03-23T11:49:07.580Z,9.70
2019-03-23T11:51:35.702Z,9.57
2019-03-23T11:54:03.839Z,8.40
2019-03-23T11:56:31.990Z,9.73
2019-03-23T11:59:00.165Z,9.43
2019-03-23T12:01:28.446Z,9.43
2019-03-23T12:03:56.621Z,9.33
2019-03-23T12:06:24.767Z,8.97
2019-03-23T12:08:52.952Z,9.27
2019-03-23T12:11:21.172Z,9.30
2019-03-23T12:13:49.366Z,9.10
2019-03-23T12:16:17.480Z,8.80
2019-03-23T12:18:45.837Z,9.93
2019-03-23T12:21:13.992Z,10.07
2019-03-23T12:23:42.099Z,9.93
2019-03-23T12:26:10.301Z,9.20
2019-03-23T12:28:38.510Z,9.70
2019-03-23T12:31:06.673Z,8.70
2019-03-23T12:33:34.820Z,9.30
2019-03-23T12:36:03.218Z,9.30
2019-03-23T12:38:31.368Z,9.07
2019-03-23T12:41:10.002Z,9.03
2019-03-23T12:43:29.533Z,8.90
2019-03-23T12:45:57.728Z,8.83
2019-03-23T12:48:25.910Z,9.50
2019-03-23T12:50:54.089Z,9.20
2019-03-23T12:53:22.196Z,9.03
2019-03-23T12:55:50.358Z,9.00
2019-03-23T12:58:18.486Z,9.43
2019-03-23T13:00:46.630Z,9.43
2019-03-23T13:03:14.790Z,9.47
2019-03-23T13:05:42.984Z,8.90
2019-03-23T13:08:11.189Z,9.37
2019-03-23T13:10:39.316Z,8.93
2019-03-23T13:13:07.488Z,8.23
2019-03-23T13:15:35.664Z,9.80
2019-03-23T13:18:03.818Z,8.73
2019-03-23T13:20:32.162Z,8.63
2019-03-23T13:23:00.517Z,8.23
2019-03-23T13:25:28.654Z,8.43
2019-03-23T13:27:56.907Z,7.83
2019-03-23T13:30:25.058Z,7.40
2019-03-23T13:32:53.220Z,7.63
2019-03-23T13:35:21.379Z,8.90
2019-03-23T13:37:49.554Z,8.00
2019-03-23T13:40:17.713Z,7.60
2019-03-23T13:42:45.860Z,8.30
2019-03-23T13:45:14.012Z,7.80
2019-03-23T13:47:42.218Z,7.27
2019-03-23T13:50:10.950Z,6.53
2019-03-23T13:52:39.075Z,7.90
2019-03-23T13:55:09.446Z,8.50
2019-03-23T13:57:37.612Z,7.67
2019-03-23T14:00:06.241Z,6.73
2019-03-23T14:02:34.707Z,6.93
2019-03-23T14:05:02.883Z,7.00
2019-03-23T14:07:31.042Z,7.13
2019-03-23T14:09:59.198Z,6.67
2019-03-23T14:12:27.326Z,6.80
2019-03-23T14:14:55.445Z,7.27
2019-03-23T14:17:23.603Z,9.17
2019-03-23T14:19:51.764Z,7.40
2019-03-23T14:22:19.963Z,7.10
2019-03-23T14:24:48.160Z,7.77
2019-03-23T14:27:16.471Z,7.57
2019-03-23T14:29:45.566Z,6.93
2019-03-23T14:32:13.710Z,7.20
2019-03-23T14:34:41.829Z,7.47
2019-03-23T14:37:09.999Z,7.77
2019-03-23T14:39:38.197Z,7.30
2019-03-23T14:42:06.434Z,7.33
2019-03-23T14:44:34.498Z,7.17
2019-03-23T14:47:02.711Z,7.70
2019-03-23T14:49:30.881Z,8.00
2019-03-23T14:52:00.935Z,7.27
2019-03-23T14:54:28.962Z,7.80
2019-03-23T14:56:57.129Z,7.60
2019-03-23T14:59:25.218Z,7.47
2019-03-23T15:01:54.227Z,8.20
2019-03-23T15:04:22.291Z,7.43
2019-03-23T15:06:50.409Z,7.57
2019-03-23T15:09:18.594Z,7.40
2019-03-23T15:11:46.709Z,7.60
2019-03-23T15:14:14.884Z,7.50
2019-03-23T15:16:43.065Z,7.63
2019-03-23T15:19:11.226Z,8.17
2019-03-23T15:21:39.412Z,7.40
2019-03-23T15:24:07.575Z,7.10
2019-03-23T15:26:35.666Z,7.33
2019-03-23T15:29:03.959Z,7.20
2019-03-23T15:31:32.109Z,7.53
2019-03-23T15:34:00.318Z,7.60
2019-03-23T15:36:28.507Z,7.87
2019-03-23T15:38:56.668Z,8.03
2019-03-23T15:41:24.912Z,7.50
2019-03-23T15:43:53.009Z,7.33
2019-03-23T15:46:21.254Z,7.77
2019-03-23T15:48:49.397Z,8.00
2019-03-23T15:51:17.589Z,7.97
2019-03-23T15:53:45.740Z,7.37
2019-03-23T15:56:14.084Z,7.63
2019-03-23T15:58:42.321Z,9.20
2019-03-23T16:01:10.566Z,7.03
2019-03-23T16:03:38.720Z,7.50
2019-03-23T16:06:06.885Z,8.30
2019-03-23T16:08:35.029Z,7.80
2019-03-23T16:11:03.163Z,8.50
2019-03-23T16:13:31.363Z,7.67
2019-03-23T16:15:59.670Z,7.57
2019-03-23T16:18:27.752Z,7.23
2019-03-23T16:20:56.178Z,7.20
2019-03-23T16:23:24.244Z,7.30
2019-03-23T16:25:52.398Z,7.27
2019-03-23T16:28:20.520Z,7.97
2019-03-23T16:30:48.643Z,7.03
2019-03-23T16:33:16.771Z,7.03
2019-03-23T16:35:44.921Z,6.90
2019-03-23T16:38:13.095Z,7.73
2019-03-23T16:40:41.276Z,6.60
2019-03-23T16:43:09.430Z,6.40
2019-03-23T16:45:37.585Z,7.43
2019-03-23T16:48:05.783Z,8.63
2019-03-23T16:50:33.919Z,6.03
2019-03-23T16:53:02.107Z,6.57
2019-03-23T16:55:30.277Z,6.00
2019-03-23T16:57:58.454Z,5.77
2019-03-23T17:00:34.416Z,6.20
2019-03-23T17:03:02.566Z,5.60
2019-03-23T17:05:30.771Z,5.40
2019-03-23T17:07:58.893Z,6.03
2019-03-23T17:10:27.139Z,5.50
2019-03-23T17:12:55.687Z,7.00
2019-03-23T17:15:23.863Z,5.63
2019-03-23T17:17:52.053Z,5.73
2019-03-23T17:20:20.192Z,9.40
2019-03-23T17:22:48.295Z,5.30
2019-03-23T17:25:16.548Z,5.47
2019-03-23T17:27:44.643Z,5.77
2019-03-23T17:30:13.890Z,6.03
2019-03-23T17:32:42.054Z,6.27
2019-03-23T17:35:10.279Z,6.77
2019-03-23T17:37:38.489Z,6.67
2019-03-23T17:40:07.445Z,6.73
2019-03-23T17:42:35.591Z,6.10
2019-03-23T17:45:04.435Z,6.37
2019-03-23T17:47:32.572Z,6.50
2019-03-23T17:50:00.655Z,6.60
2019-03-23T17:52:28.822Z,6.60
2019-03-23T17:54:57.220Z,7.07
2019-03-23T17:57:25.378Z,6.90
2019-03-23T17:59:53.567Z,7.33
2019-03-23T18:02:21.715Z,7.07
2019-03-23T18:04:50.724Z,6.60
2019-03-23T18:07:18.983Z,6.30
2019-03-23T18:09:47.085Z,6.20
2019-03-23T18:12:15.244Z,5.67
2019-03-23T18:14:43.436Z,6.03
2019-03-23T18:17:11.725Z,5.83
2019-03-23T18:19:39.938Z,6.10
2019-03-23T18:22:08.069Z,5.83
2019-03-23T18:24:36.189Z,5.67
2019-03-23T18:27:04.383Z,6.70
2019-03-23T18:29:32.500Z,7.13
2019-03-23T18:32:00.681Z,7.87
2019-03-23T18:34:28.859Z,7.27
2019-03-23T18:36:58.184Z,9.03
2019-03-23T18:39:26.304Z,7.93
2019-03-23T18:41:54.581Z,8.47
2019-03-23T18:44:22.724Z,7.63
2019-03-23T18:46:50.872Z,8.03
2019-03-23T18:49:19.097Z,7.63
2019-03-23T18:51:47.264Z,8.37
2019-03-23T18:54:15.473Z,7.93
2019-03-23T18:56:43.911Z,8.20
2019-03-23T18:59:12.109Z,8.33
2019-03-23T19:01:40.214Z,8.63
2019-03-23T19:04:08.380Z,8.63
2019-03-23T19:06:36.537Z,8.53
2019-03-23T19:09:06.692Z,8.23
2019-03-23T19:11:34.879Z,7.93
2019-03-23T19:14:03.094Z,8.33
2019-03-23T19:16:31.206Z,7.60
2019-03-23T19:18:59.407Z,7.63
2019-03-23T19:21:27.568Z,6.90
2019-03-23T19:23:55.703Z,7.80
2019-03-23T19:26:23.820Z,9.00
2019-03-23T19:28:51.948Z,7.53
2019-03-23T19:31:20.155Z,8.07
2019-03-23T19:33:48.293Z,8.80
2019-03-23T19:36:16.445Z,8.37
2019-03-23T19:38:44.560Z,8.43
2019-03-23T19:41:12.702Z,9.07
2019-03-23T19:43:49.070Z,7.97
2019-03-23T19:46:10.945Z,8.30
2019-03-23T19:48:39.156Z,8.50
2019-03-23T19:51:07.342Z,8.47
2019-03-23T19:53:35.568Z,8.60
2019-03-23T19:56:03.862Z,8.37
2019-03-23T19:58:32.118Z,8.83
2019-03-23T20:01:00.372Z,8.57
2019-03-23T20:03:28.615Z,8.80
2019-03-23T20:05:57.568Z,8.93
2019-03-23T20:08:25.866Z,8.33
2019-03-23T20:10:54.024Z,8.97
2019-03-23T20:13:22.205Z,8.77
2019-03-23T20:15:50.357Z,9.00
2019-03-23T20:18:18.608Z,9.50
2019-03-23T20:20:46.773Z,9.83
2019-03-23T20:23:14.890Z,10.53
2019-03-23T20:25:43.063Z,10.80
2019-03-23T20:28:11.276Z,11.33
2019-03-23T20:30:39.570Z,10.47
2019-03-23T20:33:07.790Z,10.90
2019-03-23T20:35:36.240Z,10.67
2019-03-23T20:38:04.470Z,10.50
2019-03-23T20:40:32.770Z,11.07
2019-03-23T20:43:01.255Z,11.37
2019-03-23T20:45:30.206Z,9.77
2019-03-23T20:47:58.863Z,9.30
2019-03-23T20:50:27.028Z,9.90
2019-03-23T20:52:55.248Z,10.50
2019-03-23T20:55:25.172Z,9.87
2019-03-23T20:57:54.876Z,9.33
2019-03-23T21:00:23.055Z,10.40
2019-03-23T21:02:51.449Z,9.60
2019-03-23T21:05:19.695Z,9.30
2019-03-23T21:07:47.932Z,8.63
2019-03-23T21:10:16.205Z,10.37
2019-03-23T21:12:44.538Z,11.67
2019-03-23T21:15:12.689Z,13.70
2019-03-23T21:17:50.720Z,12.60
2019-03-23T21:20:10.999Z,10.87
2019-03-23T21:22:39.178Z,10.40
2019-03-23T21:25:07.592Z,8.90
2019-03-23T21:27:35.924Z,8.83
2019-03-23T21:30:05.466Z,9.07
2019-03-23T21:32:33.634Z,7.97
2019-03-23T21:35:01.797Z,8.53
2019-03-23T21:37:30.109Z,7.90
2019-03-23T21:39:58.208Z,7.70
2019-03-23T21:42:26.527Z,8.10
2019-03-23T21:44:54.739Z,8.90
2019-03-23T21:47:23.119Z,9.50
2019-03-23T21:49:51.238Z,8.63
2019-03-23T21:52:19.478Z,8.30
2019-03-23T21:54:47.642Z,8.97
2019-03-23T21:57:15.848Z,8.33
2019-03-23T21:59:43.965Z,9.70
2019-03-23T22:02:12.409Z,8.80
2019-03-23T22:04:40.883Z,8.60
2019-03-23T22:07:09.184Z,8.70
2019-03-23T22:09:37.507Z,8.20
2019-03-23T22:12:05.831Z,7.63
2019-03-23T22:14:41.638Z,7.30
2019-03-23T22:17:05.817Z,7.70
2019-03-23T22:19:34.152Z,7.30
2019-03-23T22:22:02.294Z,7.30
2019-03-23T22:24:30.568Z,7.70
2019-03-23T22:26:58.855Z,7.53
2019-03-23T22:29:27.131Z,7.23
2019-03-23T22:31:55.274Z,8.13
2019-03-23T22:34:23.477Z,7.03
2019-03-23T22:36:51.699Z,7.27
2019-03-23T22:39:20.116Z,7.53
2019-03-23T22:41:48.300Z,7.70
2019-03-23T22:44:16.695Z,7.10
2019-03-23T22:46:44.878Z,6.83
2019-03-23T22:49:13.042Z,7.20
2019-03-23T22:51:41.317Z,7.30
2019-03-23T22:54:09.569Z,7.23
2019-03-23T22:56:37.728Z,6.90
2019-03-23T22:59:05.873Z,7.50
2019-03-23T23:01:34.217Z,6.80
2019-03-23T23:04:02.508Z,7.40
2019-03-23T23:06:30.771Z,7.23
2019-03-23T23:09:00.071Z,7.30
2019-03-23T23:11:28.304Z,6.57
2019-03-23T23:13:56.664Z,6.90
2019-03-23T23:16:24.857Z,6.60
2019-03-23T23:18:53.195Z,7.13
2019-03-23T23:37:27.298Z,8.13
2019-03-23T23:39:55.913Z,8.17
2019-03-23T23:42:25.897Z,8.03
2019-03-23T23:44:54.617Z,7.87
2019-03-23T23:47:24.839Z,7.60
2019-03-23T23:49:54.629Z,8.43
2019-03-23T23:52:24.164Z,8.60
2019-03-23T23:54:54.118Z,7.50
2019-03-23T23:57:25.207Z,8.20
2019-03-23T23:59:54.745Z,7.37
